createdAt,value
2023-09-27T00:00:48.679Z,20.26
2023-09-27T00:03:15.403Z,20.26
2023-09-27T00:05:42.084Z,20.25
2023-09-27T00:08:09.221Z,20.24
2023-09-27T00:10:35.759Z,20.25
2023-09-27T00:13:02.203Z,20.24
2023-09-27T00:15:28.665Z,20.24
2023-09-27T00:17:55.532Z,20.23
2023-09-27T00:20:22.985Z,20.22
2023-09-27T00:22:49.851Z,20.22
2023-09-27T00:25:16.585Z,20.21
2023-09-27T00:27:43.993Z,20.21
2023-09-27T00:30:14.441Z,20.21
2023-09-27T00:32:42.162Z,20.20
2023-09-27T00:35:15.799Z,20.20
2023-09-27T00:37:42.591Z,20.19
2023-09-27T00:40:13.958Z,20.19
2023-09-27T00:42:40.447Z,20.18
2023-09-27T00:45:08.050Z,20.18
2023-09-27T00:47:36.691Z,20.17
2023-09-27T00:50:03.812Z,20.17
2023-09-27T00:52:31.172Z,20.17
2023-09-27T00:54:58.140Z,20.15
2023-09-27T00:57:24.942Z,20.14
2023-09-27T00:59:51.493Z,20.14
2023-09-27T01:02:19.632Z,20.13
2023-09-27T01:04:46.281Z,20.13
2023-09-27T01:07:12.796Z,20.13
2023-09-27T01:09:39.525Z,20.12
2023-09-27T01:12:06.219Z,20.12
2023-09-27T01:14:32.660Z,20.12
2023-09-27T01:17:12.051Z,20.11
2023-09-27T01:19:42.077Z,20.11
2023-09-27T01:22:08.550Z,20.10
2023-09-27T01:24:38.763Z,20.09
2023-09-27T01:27:10.787Z,20.08
2023-09-27T01:29:37.430Z,20.08
2023-09-27T01:32:04.041Z,20.07
2023-09-27T01:34:30.642Z,20.07
2023-09-27T01:36:57.261Z,20.06
2023-09-27T01:39:25.427Z,20.06
2023-09-27T01:41:51.962Z,20.05
2023-09-27T01:44:19.564Z,20.04
2023-09-27T01:46:46.129Z,20.04
2023-09-27T01:49:12.686Z,20.02
2023-09-27T01:51:39.125Z,20.03
2023-09-27T01:54:05.980Z,20.02
2023-09-27T01:56:32.707Z,20.00
2023-09-27T01:58:59.244Z,20.00
2023-09-27T02:01:25.723Z,20.00
2023-09-27T02:03:52.172Z,20.00
2023-09-27T02:06:18.677Z,20.00
2023-09-27T02:08:45.181Z,19.99
2023-09-27T02:11:13.775Z,19.99
2023-09-27T02:13:40.212Z,19.98
2023-09-27T02:16:06.701Z,19.98
2023-09-27T02:18:33.548Z,19.98
2023-09-27T02:20:59.968Z,19.97
2023-09-27T02:23:26.465Z,19.96
2023-09-27T02:25:59.852Z,19.95
2023-09-27T02:28:26.408Z,19.96
2023-09-27T02:30:53.047Z,19.95
2023-09-27T02:33:19.964Z,19.94
2023-09-27T02:35:46.733Z,19.94
2023-09-27T02:38:13.814Z,19.94
2023-09-27T02:40:41.961Z,19.93
2023-09-27T02:43:08.400Z,19.93
2023-09-27T02:45:35.496Z,19.91
2023-09-27T02:48:02.827Z,19.92
2023-09-27T02:50:29.470Z,19.92
2023-09-27T02:52:56.012Z,19.91
2023-09-27T02:55:22.495Z,19.90
2023-09-27T02:57:54.246Z,19.90
2023-09-27T03:00:22.444Z,19.90
2023-09-27T03:02:49.176Z,19.89
2023-09-27T03:05:16.250Z,19.89
2023-09-27T03:07:45.954Z,19.87
2023-09-27T03:10:12.879Z,19.88
2023-09-27T03:12:43.248Z,19.87
2023-09-27T03:15:13.026Z,19.87
2023-09-27T03:17:41.492Z,19.86
2023-09-27T03:20:10.466Z,19.86
2023-09-27T03:22:37.575Z,19.84
2023-09-27T03:25:04.349Z,19.84
2023-09-27T03:27:30.810Z,19.84
2023-09-27T03:29:57.286Z,19.85
2023-09-27T03:32:23.768Z,19.84
2023-09-27T03:34:52.041Z,19.82
2023-09-27T03:37:19.392Z,19.82
2023-09-27T03:39:45.878Z,19.83
2023-09-27T03:42:12.458Z,19.82
2023-09-27T03:44:39.745Z,19.80
2023-09-27T03:47:06.331Z,19.80
2023-09-27T03:49:32.899Z,19.79
2023-09-27T03:51:59.332Z,19.79
2023-09-27T03:54:25.818Z,19.79
2023-09-27T03:56:53.179Z,19.78
2023-09-27T03:59:20.040Z,19.77
2023-09-27T04:01:47.781Z,19.79
2023-09-27T04:04:14.312Z,19.77
2023-09-27T04:06:40.790Z,19.76
2023-09-27T04:09:08.210Z,19.76
2023-09-27T04:11:34.741Z,19.76
2023-09-27T04:14:01.354Z,19.75
2023-09-27T04:16:31.937Z,19.75
2023-09-27T04:18:59.684Z,19.74
2023-09-27T04:21:26.745Z,19.74
2023-09-27T04:23:57.796Z,19.72
2023-09-27T04:26:25.147Z,19.72
2023-09-27T04:28:53.585Z,19.73
2023-09-27T04:31:20.752Z,19.71
2023-09-27T04:33:48.398Z,19.71
2023-09-27T04:36:19.014Z,19.67
2023-09-27T04:38:47.480Z,19.65
2023-09-27T04:41:17.483Z,19.60
2023-09-27T04:43:44.637Z,19.55
2023-09-27T04:46:19.159Z,19.53
2023-09-27T04:48:47.481Z,19.49
2023-09-27T04:51:14.111Z,19.47
2023-09-27T04:53:40.916Z,19.45
2023-09-27T04:56:08.804Z,19.43
2023-09-27T04:58:37.731Z,19.43
2023-09-27T05:01:07.314Z,19.40
2023-09-27T05:03:34.498Z,19.39
2023-09-27T05:06:01.095Z,19.37
2023-09-27T05:08:28.042Z,19.35
2023-09-27T05:10:55.905Z,19.32
2023-09-27T05:13:22.979Z,19.30
2023-09-27T05:15:50.409Z,19.28
2023-09-27T05:18:17.582Z,19.25
2023-09-27T05:20:47.456Z,19.23
2023-09-27T05:23:13.976Z,19.24
2023-09-27T05:25:40.749Z,19.24
2023-09-27T05:28:07.305Z,19.23
2023-09-27T05:30:34.000Z,19.23
2023-09-27T05:33:00.687Z,19.25
2023-09-27T05:35:27.472Z,19.23
2023-09-27T05:37:53.990Z,19.24
2023-09-27T05:40:20.466Z,19.22
2023-09-27T05:42:47.470Z,19.19
2023-09-27T05:45:14.565Z,19.18
2023-09-27T05:47:42.475Z,19.17
2023-09-27T05:50:10.421Z,19.15
2023-09-27T05:52:37.007Z,19.16
2023-09-27T05:55:06.978Z,19.15
2023-09-27T05:57:33.901Z,19.16
2023-09-27T06:00:01.717Z,19.19
2023-09-27T06:02:32.569Z,19.22
2023-09-27T06:05:00.317Z,19.25
2023-09-27T06:07:27.097Z,19.25
2023-09-27T06:09:53.522Z,19.25
2023-09-27T06:12:19.953Z,19.22
2023-09-27T06:14:46.559Z,19.24
2023-09-27T06:17:18.110Z,19.20
2023-09-27T06:19:45.107Z,19.20
2023-09-27T06:22:14.818Z,19.22
2023-09-27T06:24:42.072Z,19.22
2023-09-27T06:27:09.124Z,19.23
2023-09-27T06:29:35.662Z,19.23
2023-09-27T06:32:02.966Z,19.24
2023-09-27T06:34:29.526Z,19.25
2023-09-27T06:36:57.526Z,19.24
2023-09-27T06:39:27.193Z,19.26
2023-09-27T06:41:53.781Z,19.25
2023-09-27T06:44:20.405Z,19.25
2023-09-27T06:46:49.402Z,19.27
2023-09-27T06:49:18.295Z,19.31
2023-09-27T06:51:45.267Z,19.32
2023-09-27T06:54:11.862Z,19.35
2023-09-27T06:56:38.596Z,19.37
2023-09-27T06:59:06.286Z,19.40
2023-09-27T07:01:32.773Z,19.41
2023-09-27T07:03:59.376Z,19.43
2023-09-27T07:06:26.047Z,19.45
2023-09-27T07:08:54.266Z,19.47
2023-09-27T07:11:22.254Z,19.47
2023-09-27T07:13:48.977Z,19.51
2023-09-27T07:16:21.764Z,19.51
2023-09-27T07:18:50.123Z,19.53
2023-09-27T07:21:18.449Z,19.56
2023-09-27T07:23:44.935Z,19.57
2023-09-27T07:26:11.420Z,19.59
2023-09-27T07:28:38.664Z,19.61
2023-09-27T07:31:06.031Z,19.63
2023-09-27T07:33:32.832Z,19.65
2023-09-27T07:35:59.820Z,19.67
2023-09-27T07:38:29.119Z,19.70
2023-09-27T07:40:55.615Z,19.73
2023-09-27T07:43:22.755Z,19.75
2023-09-27T07:45:49.230Z,19.79
2023-09-27T07:48:16.104Z,19.81
2023-09-27T07:50:42.693Z,19.83
2023-09-27T07:53:12.452Z,19.85
2023-09-27T07:55:51.751Z,19.86
2023-09-27T07:58:18.932Z,19.88
2023-09-27T08:00:45.567Z,19.90
2023-09-27T08:03:12.390Z,19.90
2023-09-27T08:05:44.802Z,19.93
2023-09-27T08:08:12.411Z,19.93
2023-09-27T08:10:46.991Z,19.95
2023-09-27T08:13:16.049Z,19.97
2023-09-27T08:15:43.715Z,20.00
2023-09-27T08:18:10.566Z,20.03
2023-09-27T08:20:37.314Z,20.06
2023-09-27T08:23:04.266Z,20.09
2023-09-27T08:25:30.703Z,20.10
2023-09-27T08:27:57.625Z,20.11
2023-09-27T08:30:24.466Z,20.17
2023-09-27T08:32:52.695Z,20.20
2023-09-27T08:35:19.883Z,20.28
2023-09-27T08:37:46.754Z,20.36
2023-09-27T08:40:16.381Z,20.43
2023-09-27T08:42:44.065Z,20.50
2023-09-27T08:45:15.446Z,20.53
2023-09-27T08:47:44.379Z,20.57
2023-09-27T08:50:15.752Z,20.64
2023-09-27T08:52:48.717Z,20.66
2023-09-27T08:55:17.644Z,20.64
2023-09-27T08:57:49.800Z,20.64
2023-09-27T09:00:21.538Z,20.67
2023-09-27T09:02:58.384Z,20.69
2023-09-27T09:05:29.182Z,20.68
2023-09-27T09:07:57.253Z,20.72
2023-09-27T09:10:24.068Z,20.73
2023-09-27T09:12:50.740Z,20.71
2023-09-27T09:15:29.536Z,20.71
2023-09-27T09:17:59.178Z,20.68
2023-09-27T09:20:34.176Z,20.68
2023-09-27T09:23:08.546Z,20.69
2023-09-27T09:25:44.341Z,20.71
2023-09-27T09:28:10.918Z,20.73
2023-09-27T09:30:38.987Z,20.75
2023-09-27T09:33:37.800Z,20.76
2023-09-27T09:36:04.898Z,20.76
2023-09-27T09:38:32.205Z,20.75
2023-09-27T09:41:01.499Z,20.76
2023-09-27T09:43:38.617Z,20.76
2023-09-27T09:46:11.764Z,20.73
2023-09-27T09:48:42.466Z,20.71
2023-09-27T09:51:09.473Z,20.67
2023-09-27T09:53:40.633Z,20.66
2023-09-27T09:58:58.752Z,20.65
2023-09-27T10:01:30.539Z,20.65
2023-09-27T10:03:59.569Z,20.65
2023-09-27T10:06:45.037Z,20.64
2023-09-27T10:09:16.073Z,20.63
2023-09-27T10:11:49.183Z,20.60
2023-09-27T10:14:19.563Z,20.59
2023-09-27T10:16:46.755Z,20.58
2023-09-27T10:19:25.602Z,20.59
2023-09-27T10:22:15.375Z,20.62
2023-09-27T10:24:44.919Z,20.60
2023-09-27T10:27:11.495Z,20.64
2023-09-27T10:29:58.937Z,20.70
2023-09-27T10:32:25.909Z,20.74
2023-09-27T10:34:53.093Z,20.80
2023-09-27T10:37:59.430Z,20.91
2023-09-27T10:40:26.363Z,20.97
2023-09-27T10:42:53.926Z,21.03
2023-09-27T10:45:20.613Z,21.10
2023-09-27T10:47:50.711Z,21.22
2023-09-27T10:50:28.798Z,21.34
2023-09-27T10:52:55.351Z,21.43
2023-09-27T10:55:21.906Z,21.62
2023-09-27T10:57:49.341Z,21.75
2023-09-27T11:00:19.261Z,21.63
2023-09-27T11:02:45.816Z,21.56
2023-09-27T11:05:13.146Z,21.51
2023-09-27T11:07:47.657Z,21.42
2023-09-27T11:10:34.453Z,21.39
2023-09-27T11:13:12.993Z,21.56
2023-09-27T11:15:40.961Z,21.85
2023-09-27T11:18:11.807Z,22.10
2023-09-27T11:20:41.116Z,22.47
2023-09-27T11:23:08.114Z,22.85
2023-09-27T11:25:36.276Z,23.32
2023-09-27T11:28:03.499Z,23.82
2023-09-27T11:30:35.813Z,24.18
2023-09-27T11:33:09.251Z,24.52
2023-09-27T11:35:36.110Z,24.83
2023-09-27T11:38:13.263Z,25.02
2023-09-27T11:40:44.809Z,25.35
2023-09-27T11:43:12.326Z,25.72
2023-09-27T11:45:49.473Z,25.98
2023-09-27T11:48:16.926Z,26.12
2023-09-27T11:50:43.692Z,26.31
2023-09-27T11:53:10.368Z,26.52
2023-09-27T11:55:36.920Z,26.83
2023-09-27T11:58:03.700Z,27.08
2023-09-27T12:00:30.801Z,27.37
2023-09-27T12:02:58.606Z,27.64
2023-09-27T12:05:26.403Z,27.81
2023-09-27T12:07:53.977Z,27.95
2023-09-27T12:10:20.521Z,28.11
2023-09-27T12:12:46.999Z,28.21
2023-09-27T12:15:13.671Z,28.41
2023-09-27T12:17:40.294Z,28.58
2023-09-27T12:20:10.983Z,28.72
2023-09-27T12:22:42.901Z,28.86
2023-09-27T12:25:10.879Z,29.04
2023-09-27T12:27:37.553Z,29.22
2023-09-27T12:30:06.350Z,28.42
2023-09-27T12:32:33.179Z,27.63
2023-09-27T12:34:59.758Z,27.11
2023-09-27T12:37:27.132Z,26.84
2023-09-27T12:39:53.567Z,26.40
2023-09-27T12:42:20.109Z,26.08
2023-09-27T12:44:46.596Z,25.84
2023-09-27T12:47:15.321Z,25.64
2023-09-27T12:49:41.868Z,25.45
2023-09-27T12:52:08.338Z,25.28
2023-09-27T12:54:35.024Z,25.15
2023-09-27T12:57:01.465Z,25.01
2023-09-27T12:59:28.207Z,24.84
2023-09-27T13:01:55.151Z,24.67
2023-09-27T13:04:21.698Z,24.62
2023-09-27T13:06:49.623Z,24.46
2023-09-27T13:09:19.058Z,24.33
2023-09-27T13:11:45.694Z,24.17
2023-09-27T13:14:12.464Z,24.03
2023-09-27T13:16:39.055Z,23.90
2023-09-27T13:19:05.635Z,23.76
2023-09-27T13:21:32.091Z,23.67
2023-09-27T13:23:58.541Z,23.63
2023-09-27T13:26:26.744Z,23.57
2023-09-27T13:28:53.432Z,23.52
2023-09-27T13:31:20.070Z,23.46
2023-09-27T13:33:51.731Z,23.35
2023-09-27T13:36:21.712Z,23.21
2023-09-27T13:38:50.650Z,23.12
2023-09-27T13:41:17.299Z,23.02
2023-09-27T13:43:43.811Z,22.94
2023-09-27T13:46:10.473Z,22.91
2023-09-27T13:48:37.153Z,22.80
2023-09-27T13:51:03.832Z,22.70
2023-09-27T13:53:30.294Z,22.67
2023-09-27T13:55:57.077Z,22.58
2023-09-27T13:58:23.853Z,22.51
2023-09-27T14:00:50.509Z,22.41
2023-09-27T14:03:18.503Z,22.35
2023-09-27T14:05:45.195Z,22.33
2023-09-27T14:08:12.327Z,22.33
2023-09-27T14:10:38.813Z,22.28
2023-09-27T14:13:05.251Z,22.25
2023-09-27T14:15:32.483Z,22.21
2023-09-27T14:17:59.078Z,22.18
2023-09-27T14:20:25.662Z,22.14
2023-09-27T14:22:53.384Z,22.13
2023-09-27T14:25:21.071Z,22.07
2023-09-27T14:27:48.833Z,22.04
2023-09-27T14:30:15.777Z,22.02
2023-09-27T14:32:44.303Z,21.99
2023-09-27T14:35:13.761Z,21.96
2023-09-27T14:37:40.917Z,21.96
2023-09-27T14:40:10.557Z,21.92
2023-09-27T14:42:43.037Z,21.89
2023-09-27T14:45:20.150Z,21.86
2023-09-27T14:47:55.329Z,21.84
2023-09-27T14:50:21.898Z,21.82
2023-09-27T14:52:49.685Z,21.79
2023-09-27T14:55:19.822Z,21.79
2023-09-27T14:57:46.904Z,21.83
2023-09-27T15:00:13.790Z,21.86
2023-09-27T15:02:42.761Z,21.87
2023-09-27T15:05:09.664Z,21.87
2023-09-27T15:07:37.424Z,21.87
2023-09-27T15:10:04.110Z,21.85
2023-09-27T15:12:30.601Z,21.83
2023-09-27T15:14:57.171Z,21.84
2023-09-27T15:17:23.606Z,21.81
2023-09-27T15:19:50.199Z,21.79
2023-09-27T15:22:17.846Z,21.78
2023-09-27T15:24:44.801Z,21.77
2023-09-27T15:27:11.360Z,21.76
2023-09-27T15:29:37.935Z,21.74
2023-09-27T15:32:04.596Z,21.75
2023-09-27T15:34:34.369Z,21.74
2023-09-27T15:37:00.924Z,21.73
2023-09-27T15:39:27.501Z,21.73
2023-09-27T15:41:54.608Z,21.74
2023-09-27T15:44:21.037Z,21.76
2023-09-27T15:46:50.392Z,21.78
2023-09-27T15:49:16.828Z,21.78
2023-09-27T15:51:44.609Z,21.80
2023-09-27T15:54:18.604Z,21.81
2023-09-27T15:56:46.180Z,21.79
2023-09-27T15:59:12.714Z,21.78
2023-09-27T16:01:39.449Z,21.79
2023-09-27T16:04:08.389Z,21.76
2023-09-27T16:06:35.163Z,21.76
2023-09-27T16:09:01.735Z,21.76
2023-09-27T16:11:31.205Z,21.75
2023-09-27T16:13:57.841Z,21.75
2023-09-27T16:16:24.480Z,21.73
2023-09-27T16:18:50.979Z,21.72
2023-09-27T16:21:20.198Z,21.72
2023-09-27T16:23:46.758Z,21.71
2023-09-27T16:26:13.361Z,21.70
2023-09-27T16:28:40.385Z,21.67
2023-09-27T16:31:09.561Z,21.63
2023-09-27T16:33:38.562Z,21.65
2023-09-27T16:36:05.318Z,21.62
2023-09-27T16:38:31.764Z,21.60
2023-09-27T16:40:59.090Z,21.58
2023-09-27T16:43:25.657Z,21.57
2023-09-27T16:45:52.229Z,21.56
2023-09-27T16:48:19.040Z,21.56
2023-09-27T16:50:45.543Z,21.56
2023-09-27T16:53:12.021Z,21.53
2023-09-27T16:55:38.807Z,21.54
2023-09-27T16:58:06.295Z,21.53
2023-09-27T17:00:32.891Z,21.53
2023-09-27T17:02:59.433Z,21.55
2023-09-27T17:05:25.996Z,21.54
2023-09-27T17:07:52.473Z,21.56
2023-09-27T17:10:19.080Z,21.56
2023-09-27T17:12:45.489Z,21.56
2023-09-27T17:15:12.214Z,21.56
2023-09-27T17:17:38.689Z,21.55
2023-09-27T17:20:05.916Z,21.56
2023-09-27T17:22:32.464Z,21.56
2023-09-27T17:24:58.959Z,21.57
2023-09-27T17:27:25.642Z,21.57
2023-09-27T17:29:52.142Z,21.58
2023-09-27T17:32:19.931Z,21.58
2023-09-27T17:34:46.487Z,21.58
2023-09-27T17:37:13.393Z,21.59
2023-09-27T17:39:39.926Z,21.58
2023-09-27T17:42:06.751Z,21.59
2023-09-27T17:44:33.521Z,21.59
2023-09-27T17:47:00.082Z,21.59
2023-09-27T17:49:27.412Z,21.59
2023-09-27T17:51:56.613Z,21.60
2023-09-27T17:54:23.815Z,21.60
2023-09-27T17:56:53.972Z,21.60
2023-09-27T17:59:20.698Z,21.60
2023-09-27T18:01:49.156Z,21.59
2023-09-27T18:04:16.659Z,21.60
2023-09-27T18:06:43.176Z,21.61
2023-09-27T18:09:10.178Z,21.61
2023-09-27T18:11:36.628Z,21.63
2023-09-27T18:14:03.978Z,21.62
2023-09-27T18:16:30.580Z,21.62
2023-09-27T18:18:57.609Z,21.61
2023-09-27T18:21:24.754Z,21.57
2023-09-27T18:23:51.823Z,21.55
2023-09-27T18:26:18.654Z,21.55
2023-09-27T18:28:45.216Z,21.56
2023-09-27T18:31:12.165Z,21.53
2023-09-27T18:33:39.095Z,21.54
2023-09-27T18:36:05.904Z,21.56
2023-09-27T18:38:32.721Z,21.57
2023-09-27T18:40:59.518Z,21.57
2023-09-27T18:43:26.168Z,21.57
2023-09-27T18:45:52.917Z,21.58
2023-09-27T18:48:20.258Z,21.58
2023-09-27T18:50:49.831Z,21.57
2023-09-27T18:53:16.751Z,21.58
2023-09-27T18:55:43.262Z,21.58
2023-09-27T18:58:15.086Z,21.59
2023-09-27T19:00:45.122Z,21.59
2023-09-27T19:03:13.659Z,21.60
2023-09-27T19:05:40.785Z,21.59
2023-09-27T19:08:07.619Z,21.59
2023-09-27T19:10:34.194Z,21.60
2023-09-27T19:13:00.787Z,21.60
2023-09-27T19:15:27.381Z,21.59
2023-09-27T19:17:57.645Z,21.60
2023-09-27T19:20:25.259Z,21.60
2023-09-27T19:22:53.977Z,21.61
2023-09-27T19:25:21.669Z,21.61
2023-09-27T19:27:49.920Z,21.60
2023-09-27T19:30:17.305Z,21.60
2023-09-27T19:32:46.869Z,21.61
2023-09-27T19:35:13.969Z,21.62
2023-09-27T19:37:43.633Z,21.63
2023-09-27T19:40:13.716Z,21.62
2023-09-27T19:42:43.705Z,21.61
2023-09-27T19:45:11.289Z,21.61
2023-09-27T19:47:37.969Z,21.60
2023-09-27T19:50:06.384Z,21.60
2023-09-27T19:52:34.098Z,21.61
2023-09-27T19:55:00.836Z,21.63
2023-09-27T19:57:27.380Z,21.61
2023-09-27T19:59:54.031Z,21.62
2023-09-27T20:02:20.899Z,21.60
2023-09-27T20:04:48.374Z,21.60
2023-09-27T20:07:14.991Z,21.60
2023-09-27T20:09:41.527Z,21.59
2023-09-27T20:12:08.072Z,21.60
2023-09-27T20:14:34.686Z,21.60
2023-09-27T20:17:01.352Z,21.59
2023-09-27T20:19:27.925Z,21.59
2023-09-27T20:21:56.861Z,21.58
2023-09-27T20:24:27.172Z,21.59
2023-09-27T20:26:53.924Z,21.57
2023-09-27T20:29:21.094Z,21.54
2023-09-27T20:31:48.513Z,21.51
2023-09-27T20:34:15.225Z,21.47
2023-09-27T20:36:42.201Z,21.43
2023-09-27T20:39:09.777Z,21.42
2023-09-27T20:41:36.328Z,21.41
2023-09-27T20:44:02.953Z,21.40
2023-09-27T20:46:29.541Z,21.37
2023-09-27T20:48:56.481Z,21.36
2023-09-27T20:51:23.053Z,21.34
2023-09-27T20:53:49.653Z,21.33
2023-09-27T20:56:16.266Z,21.31
2023-09-27T20:58:43.181Z,21.28
2023-09-27T21:01:31.165Z,21.27
2023-09-27T21:04:00.214Z,21.26
2023-09-27T21:06:30.733Z,21.23
2023-09-27T21:09:02.191Z,21.21
2023-09-27T21:11:29.671Z,21.20
2023-09-27T21:14:01.188Z,21.18
2023-09-27T21:16:29.155Z,21.17
2023-09-27T21:18:56.515Z,21.15
2023-09-27T21:21:24.209Z,21.15
2023-09-27T21:23:51.172Z,21.14
2023-09-27T21:26:18.285Z,21.13
2023-09-27T21:28:46.484Z,21.11
2023-09-27T21:31:16.290Z,21.09
2023-09-27T21:33:43.768Z,21.08
2023-09-27T21:36:10.705Z,21.07
2023-09-27T21:38:38.272Z,21.06
2023-09-27T21:41:05.059Z,21.05
2023-09-27T21:43:33.707Z,21.06
2023-09-27T21:46:01.046Z,21.05
2023-09-27T21:48:27.766Z,21.03
2023-09-27T21:50:54.323Z,21.03
2023-09-27T21:53:20.912Z,21.02
2023-09-27T21:55:47.762Z,21.02
2023-09-27T21:58:14.772Z,20.99
2023-09-27T22:00:41.538Z,20.97
2023-09-27T22:03:09.449Z,20.97
2023-09-27T22:05:36.204Z,20.97
2023-09-27T22:08:02.986Z,20.95
2023-09-27T22:10:35.770Z,20.94
2023-09-27T22:13:22.177Z,20.93
2023-09-27T22:15:52.230Z,20.94
2023-09-27T22:18:20.755Z,20.93
2023-09-27T22:20:49.145Z,20.93
2023-09-27T22:23:33.824Z,20.92
2023-09-27T22:26:01.529Z,20.91
2023-09-27T22:28:31.808Z,20.91
2023-09-27T22:31:01.826Z,20.89
2023-09-27T22:33:34.152Z,20.90
2023-09-27T22:36:02.086Z,20.89
2023-09-27T22:38:28.664Z,20.89
2023-09-27T22:40:57.739Z,20.89
2023-09-27T22:43:24.568Z,20.89
2023-09-27T22:45:51.116Z,20.87
2023-09-27T22:48:20.120Z,20.87
2023-09-27T22:50:49.423Z,20.85
2023-09-27T22:53:22.386Z,20.86
2023-09-27T22:55:51.598Z,20.87
2023-09-27T22:58:23.152Z,20.87
2023-09-27T23:00:58.102Z,20.85
2023-09-27T23:03:28.008Z,20.84
2023-09-27T23:05:57.500Z,20.84
2023-09-27T23:08:28.258Z,20.82
2023-09-27T23:10:56.478Z,20.82
2023-09-27T23:13:29.672Z,20.83
2023-09-27T23:15:57.003Z,20.82
2023-09-27T23:18:30.959Z,20.81
2023-09-27T23:20:59.025Z,20.82
2023-09-27T23:23:26.481Z,20.79
2023-09-27T23:25:54.891Z,20.81
2023-09-27T23:28:41.387Z,20.81
2023-09-27T23:31:11.362Z,20.82
2023-09-27T23:33:44.831Z,20.79
2023-09-27T23:36:25.882Z,20.78
2023-09-27T23:39:03.948Z,20.78
2023-09-27T23:41:31.007Z,20.78
2023-09-27T23:44:01.306Z,20.78
2023-09-27T23:46:28.376Z,20.78
2023-09-27T23:48:54.946Z,20.76
2023-09-27T23:51:21.605Z,20.78
2023-09-27T23:53:48.289Z,20.77
2023-09-27T23:56:16.681Z,20.77
2023-09-27T23:58:44.677Z,20.77
